sensor_id;sensor_type;location;lat;lon;timestamp;pressure;altitude;pressure_sealevel;temperature;humidity
50057;BME280;36875;49.468;11.200;2024-01-27T00:01:18;99406.16;;;20.61;35.99
50057;BME280;36875;49.468;11.200;2024-01-27T00:03:44;99407.22;;;20.60;36.12
50057;BME280;36875;49.468;11.200;2024-01-27T00:06:09;99403.69;;;20.59;36.09
50057;BME280;36875;49.468;11.200;2024-01-27T00:08:35;99399.06;;;20.55;36.16
50057;BME280;36875;49.468;11.200;2024-01-27T00:11:00;99402.59;;;20.55;35.99
50057;BME280;36875;49.468;11.200;2024-01-27T00:13:25;99405.06;;;20.52;36.21
50057;BME280;36875;49.468;11.200;2024-01-27T00:15:51;99409.44;;;20.53;36.27
50057;BME280;36875;49.468;11.200;2024-01-27T00:18:18;99416.56;;;20.54;36.09
50057;BME280;36875;49.468;11.200;2024-01-27T00:20:44;99414.09;;;20.47;36.11
50057;BME280;36875;49.468;11.200;2024-01-27T00:23:09;99410.28;;;20.48;36.09
50057;BME280;36875;49.468;11.200;2024-01-27T00:25:35;99419.56;;;20.47;36.11
50057;BME280;36875;49.468;11.200;2024-01-27T00:28:00;99419.56;;;20.47;36.42
50057;BME280;36875;49.468;11.200;2024-01-27T00:30:26;99422.34;;;20.42;36.19
50057;BME280;36875;49.468;11.200;2024-01-27T00:32:51;99432.44;;;20.47;36.23
50057;BME280;36875;49.468;11.200;2024-01-27T00:35:18;99438.16;;;20.45;35.90
50057;BME280;36875;49.468;11.200;2024-01-27T00:37:43;99441.44;;;20.47;36.03
50057;BME280;36875;49.468;11.200;2024-01-27T00:40:10;99442.03;;;20.44;36.23
50057;BME280;36875;49.468;11.200;2024-01-27T00:42:36;99446.66;;;20.44;36.11
50057;BME280;36875;49.468;11.200;2024-01-27T00:45:01;99444.44;;;20.46;36.03
50057;BME280;36875;49.468;11.200;2024-01-27T00:47:28;99449.66;;;20.47;35.80
50057;BME280;36875;49.468;11.200;2024-01-27T00:49:53;99464.97;;;20.53;35.69
50057;BME280;36875;49.468;11.200;2024-01-27T00:52:21;99467.16;;;20.62;35.66
50057;BME280;36875;49.468;11.200;2024-01-27T00:54:46;99465.22;;;20.72;35.28
50057;BME280;36875;49.468;11.200;2024-01-27T00:57:12;99464.13;;;20.73;35.44
50057;BME280;36875;49.468;11.200;2024-01-27T00:59:37;99463.28;;;20.83;35.40
50057;BME280;36875;49.468;11.200;2024-01-27T01:02:04;99465.16;;;20.88;35.33
50057;BME280;36875;49.468;11.200;2024-01-27T01:04:29;99469.81;;;20.92;35.33
50057;BME280;36875;49.468;11.200;2024-01-27T01:06:55;99462.94;;;21.00;34.92
50057;BME280;36875;49.468;11.200;2024-01-27T01:09:22;99475.78;;;21.05;34.67
50057;BME280;36875;49.468;11.200;2024-01-27T01:11:47;99465.34;;;21.12;34.84
50057;BME280;36875;49.468;11.200;2024-01-27T01:14:13;99462.34;;;21.08;34.81
50057;BME280;36875;49.468;11.200;2024-01-27T01:16:39;99467.50;;;21.15;34.53
50057;BME280;36875;49.468;11.200;2024-01-27T01:19:05;99469.41;;;21.20;34.35
50057;BME280;36875;49.468;11.200;2024-01-27T01:21:30;99475.44;;;21.16;34.70
50057;BME280;36875;49.468;11.200;2024-01-27T01:23:56;99483.38;;;21.18;34.31
50057;BME280;36875;49.468;11.200;2024-01-27T01:26:24;99480.38;;;21.20;34.45
50057;BME280;36875;49.468;11.200;2024-01-27T01:28:49;99480.66;;;21.18;34.66
50057;BME280;36875;49.468;11.200;2024-01-27T01:31:15;99476.00;;;21.13;34.45
50057;BME280;36875;49.468;11.200;2024-01-27T01:33:41;99474.66;;;21.06;34.82
50057;BME280;36875;49.468;11.200;2024-01-27T01:36:06;99470.00;;;21.06;34.70
50057;BME280;36875;49.468;11.200;2024-01-27T01:38:32;99475.97;;;21.18;34.56
50057;BME280;36875;49.468;11.200;2024-01-27T01:40:57;99476.25;;;21.17;34.38
50057;BME280;36875;49.468;11.200;2024-01-27T01:43:24;99482.56;;;21.17;34.24
50057;BME280;36875;49.468;11.200;2024-01-27T01:45:50;99487.22;;;21.17;34.61
50057;BME280;36875;49.468;11.200;2024-01-27T01:48:18;99480.09;;;21.16;34.25
50057;BME280;36875;49.468;11.200;2024-01-27T01:50:44;99484.75;;;21.15;34.34
50057;BME280;36875;49.468;11.200;2024-01-27T01:53:09;99482.84;;;21.21;34.33
50057;BME280;36875;49.468;11.200;2024-01-27T01:55:35;99487.19;;;21.22;34.25
50057;BME280;36875;49.468;11.200;2024-01-27T01:58:01;99488.34;;;21.11;34.53
50057;BME280;36875;49.468;11.200;2024-01-27T02:00:28;99498.44;;;21.15;34.49
50057;BME280;36875;49.468;11.200;2024-01-27T02:02:53;99503.88;;;21.21;33.90
50057;BME280;36875;49.468;11.200;2024-01-27T02:05:19;99491.06;;;21.16;34.25
50057;BME280;36875;49.468;11.200;2024-01-27T02:07:44;99493.47;;;21.23;34.28
50057;BME280;36875;49.468;11.200;2024-01-27T02:10:13;99498.16;;;21.17;34.32
50057;BME280;36875;49.468;11.200;2024-01-27T02:12:40;99497.06;;;21.18;34.16
50057;BME280;36875;49.468;11.200;2024-01-27T02:15:09;99500.06;;;21.22;34.14
50057;BME280;36875;49.468;11.200;2024-01-27T02:17:36;99493.72;;;21.26;34.04
50057;BME280;36875;49.468;11.200;2024-01-27T02:20:02;99497.06;;;21.18;34.04
50057;BME280;36875;49.468;11.200;2024-01-27T02:22:28;99499.22;;;21.26;34.17
50057;BME280;36875;49.468;11.200;2024-01-27T02:24:55;99504.16;;;21.19;34.17
50057;BME280;36875;49.468;11.200;2024-01-27T02:27:20;99510.53;;;21.04;34.37
50057;BME280;36875;49.468;11.200;2024-01-27T02:29:46;99509.72;;;20.98;34.77
50057;BME280;36875;49.468;11.200;2024-01-27T02:32:11;99508.28;;;21.22;34.11
50057;BME280;36875;49.468;11.200;2024-01-27T02:34:39;99519.97;;;21.37;34.00
50057;BME280;36875;49.468;11.200;2024-01-27T02:37:04;99524.38;;;21.33;33.79
50057;BME280;36875;49.468;11.200;2024-01-27T02:39:31;99534.50;;;21.33;33.76
50057;BME280;36875;49.468;11.200;2024-01-27T02:41:57;99536.19;;;21.29;34.04
50057;BME280;36875;49.468;11.200;2024-01-27T02:44:23;99537.00;;;21.24;34.04
50057;BME280;36875;49.468;11.200;2024-01-27T02:46:48;99541.94;;;21.27;34.00
50057;BME280;36875;49.468;11.200;2024-01-27T02:49:17;99546.84;;;21.30;33.86
50057;BME280;36875;49.468;11.200;2024-01-27T02:51:42;99553.16;;;21.26;33.83
50057;BME280;36875;49.468;11.200;2024-01-27T02:54:09;99555.09;;;21.25;34.25
50057;BME280;36875;49.468;11.200;2024-01-27T02:56:34;99552.91;;;21.22;34.28
50057;BME280;36875;49.468;11.200;2024-01-27T02:59:02;99561.09;;;21.27;34.06
50057;BME280;36875;49.468;11.200;2024-01-27T03:01:27;99555.63;;;21.27;33.81
50057;BME280;36875;49.468;11.200;2024-01-27T03:03:53;99566.59;;;21.22;33.94
50057;BME280;36875;49.468;11.200;2024-01-27T03:06:18;99561.91;;;21.23;33.99
50057;BME280;36875;49.468;11.200;2024-01-27T03:08:44;99566.06;;;21.20;34.05
50057;BME280;36875;49.468;11.200;2024-01-27T03:11:09;99564.97;;;21.21;34.36
50057;BME280;36875;49.468;11.200;2024-01-27T03:13:35;99564.69;;;21.17;34.32
50057;BME280;36875;49.468;11.200;2024-01-27T03:16:02;99569.34;;;21.17;33.98
50057;BME280;36875;49.468;11.200;2024-01-27T03:18:27;99573.75;;;21.13;34.04
50057;BME280;36875;49.468;11.200;2024-01-27T03:20:53;99574.00;;;21.11;34.28
50057;BME280;36875;49.468;11.200;2024-01-27T03:23:18;99571.28;;;21.11;34.32
50057;BME280;36875;49.468;11.200;2024-01-27T03:25:44;99575.66;;;21.07;34.11
50057;BME280;36875;49.468;11.200;2024-01-27T03:28:09;99576.53;;;20.97;34.44
50057;BME280;36875;49.468;11.200;2024-01-27T03:30:35;99570.75;;;21.04;34.25
50057;BME280;36875;49.468;11.200;2024-01-27T03:33:02;99576.78;;;21.01;34.21
50057;BME280;36875;49.468;11.200;2024-01-27T03:35:27;99582.00;;;20.97;34.33
50057;BME280;36875;49.468;11.200;2024-01-27T03:37:53;99575.69;;;20.97;34.42
50057;BME280;36875;49.468;11.200;2024-01-27T03:40:18;99579.53;;;20.96;34.04
50057;BME280;36875;49.468;11.200;2024-01-27T03:42:44;99581.47;;;20.95;34.26
50057;BME280;36875;49.468;11.200;2024-01-27T03:45:09;99579.53;;;20.86;34.49
50057;BME280;36875;49.468;11.200;2024-01-27T03:47:35;99581.47;;;20.90;34.30
50057;BME280;36875;49.468;11.200;2024-01-27T03:50:02;99583.94;;;20.87;34.63
50057;BME280;36875;49.468;11.200;2024-01-27T03:52:27;99586.41;;;20.88;34.41
50057;BME280;36875;49.468;11.200;2024-01-27T03:54:53;99594.06;;;20.86;34.37
50057;BME280;36875;49.468;11.200;2024-01-27T03:57:19;99600.63;;;20.85;34.37
50057;BME280;36875;49.468;11.200;2024-01-27T03:59:44;99601.72;;;20.79;34.60
50057;BME280;36875;49.468;11.200;2024-01-27T04:02:10;99596.00;;;20.75;34.78
50057;BME280;36875;49.468;11.200;2024-01-27T04:04:35;99613.22;;;20.71;34.52
50057;BME280;36875;49.468;11.200;2024-01-27T04:07:02;99598.44;;;20.67;34.62
50057;BME280;36875;49.468;11.200;2024-01-27T04:09:28;99610.75;;;20.69;34.65
50057;BME280;36875;49.468;11.200;2024-01-27T04:11:53;99605.28;;;20.69;34.50
50057;BME280;36875;49.468;11.200;2024-01-27T04:14:20;99611.84;;;20.68;34.57
50057;BME280;36875;49.468;11.200;2024-01-27T04:16:46;99618.13;;;20.64;34.57
50057;BME280;36875;49.468;11.200;2024-01-27T04:19:11;99618.41;;;20.62;34.47
50057;BME280;36875;49.468;11.200;2024-01-27T04:21:37;99628.53;;;20.62;34.65
50057;BME280;36875;49.468;11.200;2024-01-27T04:24:04;99627.16;;;20.54;35.01
50057;BME280;36875;49.468;11.200;2024-01-27T04:26:30;99632.88;;;20.52;34.73
50057;BME280;36875;49.468;11.200;2024-01-27T04:28:55;99624.69;;;20.52;34.81
50057;BME280;36875;49.468;11.200;2024-01-27T04:31:21;99629.06;;;20.53;34.89
50057;BME280;36875;49.468;11.200;2024-01-27T04:33:46;99631.81;;;20.53;34.56
50057;BME280;36875;49.468;11.200;2024-01-27T04:36:12;99610.72;;;20.33;34.75
50057;BME280;36875;49.468;11.200;2024-01-27T04:38:37;99636.72;;;20.46;35.00
50057;BME280;36875;49.468;11.200;2024-01-27T04:41:04;99632.59;;;20.49;34.93
50057;BME280;36875;49.468;11.200;2024-01-27T04:43:30;99633.69;;;20.53;34.68
50057;BME280;36875;49.468;11.200;2024-01-27T04:45:55;99635.34;;;20.49;34.95
50057;BME280;36875;49.468;11.200;2024-01-27T04:48:21;99649.00;;;20.49;34.87
50057;BME280;36875;49.468;11.200;2024-01-27T04:50:46;99651.19;;;20.47;34.84
50057;BME280;36875;49.468;11.200;2024-01-27T04:53:12;99650.41;;;20.51;34.98
50057;BME280;36875;49.468;11.200;2024-01-27T04:55:37;99650.41;;;20.51;34.99
50057;BME280;36875;49.468;11.200;2024-01-27T04:58:04;99644.09;;;20.51;34.59
50057;BME280;36875;49.468;11.200;2024-01-27T05:00:30;99647.94;;;20.50;34.62
50057;BME280;36875;49.468;11.200;2024-01-27T05:02:55;99649.00;;;20.49;34.41
50057;BME280;36875;49.468;11.200;2024-01-27T05:05:22;99642.72;;;20.43;34.86
50057;BME280;36875;49.468;11.200;2024-01-27T05:07:48;99646.56;;;20.37;35.18
50057;BME280;36875;49.468;11.200;2024-01-27T05:10:15;99658.56;;;20.36;34.69
50057;BME280;36875;49.468;11.200;2024-01-27T05:12:41;99645.16;;;20.34;34.96
50057;BME280;36875;49.468;11.200;2024-01-27T05:15:09;99647.09;;;20.39;34.84
50057;BME280;36875;49.468;11.200;2024-01-27T05:17:35;99644.91;;;20.41;34.93
50057;BME280;36875;49.468;11.200;2024-01-27T05:20:01;99648.19;;;20.38;35.05
50057;BME280;36875;49.468;11.200;2024-01-27T05:22:29;99638.34;;;20.37;34.95
50057;BME280;36875;49.468;11.200;2024-01-27T05:24:54;99642.19;;;20.41;34.99
50057;BME280;36875;49.468;11.200;2024-01-27T05:27:20;99642.75;;;20.53;34.68
50057;BME280;36875;49.468;11.200;2024-01-27T05:29:45;99646.06;;;20.60;34.50
50057;BME280;36875;49.468;11.200;2024-01-27T05:32:12;99652.59;;;20.80;34.10
50057;BME280;36875;49.468;11.200;2024-01-27T05:34:38;99656.16;;;20.86;34.19
50057;BME280;36875;49.468;11.200;2024-01-27T05:37:03;99658.34;;;20.94;33.85
50057;BME280;36875;49.468;11.200;2024-01-27T05:39:29;99647.69;;;20.87;34.22
50057;BME280;36875;49.468;11.200;2024-01-27T05:41:54;99658.34;;;20.94;33.76
50057;BME280;36875;49.468;11.200;2024-01-27T05:44:20;99658.34;;;20.94;34.43
50057;BME280;36875;49.468;11.200;2024-01-27T05:46:45;99661.59;;;21.06;33.96
50057;BME280;36875;49.468;11.200;2024-01-27T05:49:13;99666.53;;;21.20;33.70
50057;BME280;36875;49.468;11.200;2024-01-27T05:51:39;99666.28;;;21.21;33.65
50057;BME280;36875;49.468;11.200;2024-01-27T05:54:04;99675.03;;;21.18;33.62
50057;BME280;36875;49.468;11.200;2024-01-27T05:56:30;99671.22;;;21.14;33.92
50057;BME280;36875;49.468;11.200;2024-01-27T05:58:55;99676.13;;;21.07;33.78
50057;BME280;36875;49.468;11.200;2024-01-27T06:01:21;99677.22;;;21.06;33.87
50057;BME280;36875;49.468;11.200;2024-01-27T06:03:46;99682.16;;;21.04;33.77
50057;BME280;36875;49.468;11.200;2024-01-27T06:06:13;99682.97;;;21.04;33.81
50057;BME280;36875;49.468;11.200;2024-01-27T06:08:39;99663.81;;;20.84;33.90
50057;BME280;36875;49.468;11.200;2024-01-27T06:11:05;99692.28;;;20.98;34.15
50057;BME280;36875;49.468;11.200;2024-01-27T06:13:30;99695.59;;;20.90;34.24
50057;BME280;36875;49.468;11.200;2024-01-27T06:15:58;99693.09;;;20.78;34.55
50057;BME280;36875;49.468;11.200;2024-01-27T06:18:24;99694.75;;;20.79;34.60
50057;BME280;36875;49.468;11.200;2024-01-27T06:20:49;99686.81;;;20.83;34.63
50057;BME280;36875;49.468;11.200;2024-01-27T06:23:16;99691.19;;;20.84;34.45
50057;BME280;36875;49.468;11.200;2024-01-27T06:25:42;99693.66;;;20.85;34.27
50057;BME280;36875;49.468;11.200;2024-01-27T06:28:08;99702.97;;;20.79;34.67
50057;BME280;36875;49.468;11.200;2024-01-27T06:30:33;99712.53;;;20.76;34.65
50057;BME280;36875;49.468;11.200;2024-01-27T06:32:59;99707.59;;;20.78;34.66
50057;BME280;36875;49.468;11.200;2024-01-27T06:35:24;99706.25;;;20.76;34.64
50057;BME280;36875;49.468;11.200;2024-01-27T06:37:50;99721.84;;;20.75;34.52
50057;BME280;36875;49.468;11.200;2024-01-27T06:40:17;99720.47;;;20.78;34.59
50057;BME280;36875;49.468;11.200;2024-01-27T06:42:42;99728.13;;;20.81;34.28
50057;BME280;36875;49.468;11.200;2024-01-27T06:45:08;99727.88;;;20.77;34.46
50057;BME280;36875;49.468;11.200;2024-01-27T06:47:34;99727.88;;;20.77;34.33
50057;BME280;36875;49.468;11.200;2024-01-27T06:50:00;99724.31;;;20.77;34.42
50057;BME280;36875;49.468;11.200;2024-01-27T06:52:25;99722.69;;;20.86;34.37
50057;BME280;36875;49.468;11.200;2024-01-27T06:54:51;99728.97;;;20.87;34.57
50057;BME280;36875;49.468;11.200;2024-01-27T06:57:21;99727.88;;;20.83;34.50
50057;BME280;36875;49.468;11.200;2024-01-27T06:59:47;99725.13;;;20.88;34.24
50057;BME280;36875;49.468;11.200;2024-01-27T07:02:18;99730.59;;;20.88;34.38
50057;BME280;36875;49.468;11.200;2024-01-27T07:04:43;99734.16;;;20.78;34.48
50057;BME280;36875;49.468;11.200;2024-01-27T07:07:09;99732.50;;;20.82;34.50
50057;BME280;36875;49.468;11.200;2024-01-27T07:09:34;99747.28;;;20.81;34.75
50057;BME280;36875;49.468;11.200;2024-01-27T07:12:00;99748.06;;;20.71;34.73
50057;BME280;36875;49.468;11.200;2024-01-27T07:14:26;99752.75;;;20.71;34.80
50057;BME280;36875;49.468;11.200;2024-01-27T07:16:52;99757.13;;;20.67;35.19
50057;BME280;36875;49.468;11.200;2024-01-27T07:19:17;99753.84;;;20.65;35.14
50057;BME280;36875;49.468;11.200;2024-01-27T07:21:43;99748.91;;;20.62;35.42
50057;BME280;36875;49.468;11.200;2024-01-27T07:24:08;99754.88;;;20.58;35.16
50057;BME280;36875;49.468;11.200;2024-01-27T07:26:35;99764.97;;;20.53;35.39
50057;BME280;36875;49.468;11.200;2024-01-27T07:29:00;99764.97;;;20.53;35.34
50057;BME280;36875;49.468;11.200;2024-01-27T07:31:27;99771.78;;;20.45;35.52
50057;BME280;36875;49.468;11.200;2024-01-27T07:33:53;99772.59;;;20.46;35.44
50057;BME280;36875;49.468;11.200;2024-01-27T07:36:18;99771.28;;;20.48;35.66
50057;BME280;36875;49.468;11.200;2024-01-27T07:38:44;99771.78;;;20.40;35.99
50057;BME280;36875;49.468;11.200;2024-01-27T07:41:09;99780.81;;;20.40;35.86
50057;BME280;36875;49.468;11.200;2024-01-27T07:43:35;99779.16;;;20.39;35.76
50057;BME280;36875;49.468;11.200;2024-01-27T07:46:00;99786.03;;;20.52;35.65
50057;BME280;36875;49.468;11.200;2024-01-27T07:48:27;99789.94;;;20.67;35.19
50057;BME280;36875;49.468;11.200;2024-01-27T07:50:53;99791.84;;;20.61;35.40
50057;BME280;36875;49.468;11.200;2024-01-27T07:53:18;99791.84;;;20.61;35.19
50057;BME280;36875;49.468;11.200;2024-01-27T07:55:44;99791.28;;;20.59;35.20
50057;BME280;36875;49.468;11.200;2024-01-27T07:58:10;99792.63;;;20.51;35.30
50057;BME280;36875;49.468;11.200;2024-01-27T08:00:35;99793.16;;;20.48;35.57
50057;BME280;36875;49.468;11.200;2024-01-27T08:03:01;99796.69;;;20.49;35.60
50057;BME280;36875;49.468;11.200;2024-01-27T08:05:28;99786.16;;;20.88;35.58
50057;BME280;36875;49.468;11.200;2024-01-27T08:07:53;99785.06;;;21.15;35.34
50057;BME280;36875;49.468;11.200;2024-01-27T08:10:19;99788.66;;;21.31;35.18
50057;BME280;36875;49.468;11.200;2024-01-27T08:12:44;99783.97;;;20.90;35.78
50057;BME280;36875;49.468;11.200;2024-01-27T08:15:10;99768.59;;;20.64;36.23
50057;BME280;36875;49.468;11.200;2024-01-27T08:17:35;99775.66;;;20.54;36.62
50057;BME280;36875;49.468;11.200;2024-01-27T08:20:01;99782.22;;;20.48;36.71
50057;BME280;36875;49.468;11.200;2024-01-27T08:22:28;99783.03;;;20.54;36.73
50057;BME280;36875;49.468;11.200;2024-01-27T08:24:54;99780.94;;;20.66;36.21
50057;BME280;36875;49.468;11.200;2024-01-27T08:27:22;99784.50;;;20.87;36.07
50057;BME280;36875;49.468;11.200;2024-01-27T08:29:48;99785.09;;;21.05;35.55
50057;BME280;36875;49.468;11.200;2024-01-27T08:32:13;99781.81;;;21.18;35.81
50057;BME280;36875;49.468;11.200;2024-01-27T08:34:39;99777.41;;;21.43;35.26
50057;BME280;36875;49.468;11.200;2024-01-27T08:37:14;99785.38;;;21.49;35.07
50057;BME280;36875;49.468;11.200;2024-01-27T08:39:42;99780.97;;;21.64;34.87
50057;BME280;36875;49.468;11.200;2024-01-27T08:42:07;99783.41;;;21.70;34.55
50057;BME280;36875;49.468;11.200;2024-01-27T08:44:33;99787.53;;;21.78;34.38
50057;BME280;36875;49.468;11.200;2024-01-27T08:46:58;99787.78;;;21.82;33.08
50057;BME280;36875;49.468;11.200;2024-01-27T08:49:24;99796.28;;;21.80;31.90
50057;BME280;36875;49.468;11.200;2024-01-27T08:51:49;99793.25;;;21.87;31.74
50057;BME280;36875;49.468;11.200;2024-01-27T08:54:15;99798.16;;;21.95;32.03
50057;BME280;36875;49.468;11.200;2024-01-27T08:56:41;99792.94;;;21.99;32.23
50057;BME280;36875;49.468;11.200;2024-01-27T08:59:07;99801.72;;;22.01;32.41
50057;BME280;36875;49.468;11.200;2024-01-27T09:01:33;99799.78;;;22.06;32.67
50057;BME280;36875;49.468;11.200;2024-01-27T09:03:58;99809.94;;;22.06;32.73
50057;BME280;36875;49.468;11.200;2024-01-27T09:06:23;99810.19;;;22.09;32.93
50057;BME280;36875;49.468;11.200;2024-01-27T09:08:49;99810.22;;;21.99;32.52
50057;BME280;36875;49.468;11.200;2024-01-27T09:11:14;99804.72;;;21.99;32.31
50057;BME280;36875;49.468;11.200;2024-01-27T09:13:41;99808.28;;;22.00;32.39
50057;BME280;36875;49.468;11.200;2024-01-27T09:16:10;99800.88;;;22.05;32.57
50057;BME280;36875;49.468;11.200;2024-01-27T09:18:38;99807.16;;;22.11;32.77
50057;BME280;36875;49.468;11.200;2024-01-27T09:21:04;99801.97;;;22.04;32.77
50057;BME280;36875;49.468;11.200;2024-01-27T09:23:29;99815.69;;;21.99;32.83
50057;BME280;36875;49.468;11.200;2024-01-27T09:25:55;99808.56;;;22.03;32.79
50057;BME280;36875;49.468;11.200;2024-01-27T09:28:20;99812.69;;;22.01;33.12
50057;BME280;36875;49.468;11.200;2024-01-27T09:30:47;99805.81;;;22.03;33.12
50057;BME280;36875;49.468;11.200;2024-01-27T09:33:13;99821.16;;;22.04;33.21
50057;BME280;36875;49.468;11.200;2024-01-27T09:35:38;99823.63;;;22.06;33.16
50057;BME280;36875;49.468;11.200;2024-01-27T09:38:05;99820.63;;;22.02;32.68
50057;BME280;36875;49.468;11.200;2024-01-27T09:40:31;99815.94;;;22.13;32.39
50057;BME280;36875;49.468;11.200;2024-01-27T09:42:59;99825.53;;;22.26;32.28
50057;BME280;36875;49.468;11.200;2024-01-27T09:45:24;99826.59;;;22.35;32.35
50057;BME280;36875;49.468;11.200;2024-01-27T09:47:53;99823.84;;;22.25;32.76
50057;BME280;36875;49.468;11.200;2024-01-27T09:50:21;99830.16;;;22.36;33.33
50057;BME280;36875;49.468;11.200;2024-01-27T09:52:47;99832.34;;;22.23;33.34
50057;BME280;36875;49.468;11.200;2024-01-27T09:55:13;99830.16;;;22.36;33.06
50057;BME280;36875;49.468;11.200;2024-01-27T09:57:39;99836.16;;;22.38;33.00
50057;BME280;36875;49.468;11.200;2024-01-27T10:00:10;99842.47;;;22.33;32.88
50057;BME280;36875;49.468;11.200;2024-01-27T10:02:38;99837.56;;;22.35;32.97
50057;BME280;36875;49.468;11.200;2024-01-27T10:05:07;99829.91;;;22.27;33.13
50057;BME280;36875;49.468;11.200;2024-01-27T10:07:34;99841.97;;;22.10;33.67
50057;BME280;36875;49.468;11.200;2024-01-27T10:09:59;99852.41;;;22.03;34.15
50057;BME280;36875;49.468;11.200;2024-01-27T10:12:25;99857.34;;;22.11;33.79
50057;BME280;36875;49.468;11.200;2024-01-27T10:14:53;99855.69;;;22.26;33.61
50057;BME280;36875;49.468;11.200;2024-01-27T10:17:20;99855.94;;;22.29;33.61
50057;BME280;36875;49.468;11.200;2024-01-27T10:19:47;99848.53;;;22.25;33.67
50057;BME280;36875;49.468;11.200;2024-01-27T10:22:14;99833.97;;;22.35;33.58
50057;BME280;36875;49.468;11.200;2024-01-27T10:24:40;99846.34;;;22.22;33.98
50057;BME280;36875;49.468;11.200;2024-01-27T10:27:05;99837.03;;;22.23;34.34
50057;BME280;36875;49.468;11.200;2024-01-27T10:29:31;99842.25;;;22.19;34.88
50057;BME280;36875;49.468;11.200;2024-01-27T10:32:07;99839.78;;;22.28;35.06
50057;BME280;36875;49.468;11.200;2024-01-27T10:34:32;99839.75;;;22.33;35.36
50057;BME280;36875;49.468;11.200;2024-01-27T10:36:58;99842.00;;;22.26;35.61
50057;BME280;36875;49.468;11.200;2024-01-27T10:39:25;99846.34;;;22.22;35.78
50057;BME280;36875;49.468;11.200;2024-01-27T10:41:51;99842.25;;;22.19;35.88
50057;BME280;36875;49.468;11.200;2024-01-27T10:44:18;99830.41;;;22.24;36.02
50057;BME280;36875;49.468;11.200;2024-01-27T10:46:45;99832.34;;;22.23;36.17
50057;BME280;36875;49.468;11.200;2024-01-27T10:49:12;99834.56;;;22.21;36.21
50057;BME280;36875;49.468;11.200;2024-01-27T10:51:43;99828.78;;;22.23;35.88
50057;BME280;36875;49.468;11.200;2024-01-27T10:54:13;99806.59;;;22.19;35.54
50057;BME280;36875;49.468;11.200;2024-01-27T10:56:42;99812.34;;;22.23;35.42
50057;BME280;36875;49.468;11.200;2024-01-27T10:59:09;99804.09;;;22.23;35.73
50057;BME280;36875;49.468;11.200;2024-01-27T11:01:38;99798.34;;;22.24;35.80
50057;BME280;36875;49.468;11.200;2024-01-27T11:04:04;99796.19;;;22.11;36.25
50057;BME280;36875;49.468;11.200;2024-01-27T11:06:32;99793.69;;;22.20;36.37
50057;BME280;36875;49.468;11.200;2024-01-27T11:09:01;99806.06;;;22.17;36.46
50057;BME280;36875;49.468;11.200;2024-01-27T11:11:29;99810.97;;;22.20;36.22
50057;BME280;36875;49.468;11.200;2024-01-27T11:13:56;99814.28;;;22.17;35.94
50057;BME280;36875;49.468;11.200;2024-01-27T11:16:23;99810.97;;;22.20;35.78
50057;BME280;36875;49.468;11.200;2024-01-27T11:18:48;99814.81;;;22.14;35.45
50057;BME280;36875;49.468;11.200;2024-01-27T11:21:15;99807.72;;;22.08;34.70
50057;BME280;36875;49.468;11.200;2024-01-27T11:23:44;99810.75;;;22.01;34.65
50057;BME280;36875;49.468;11.200;2024-01-27T11:26:20;99805.81;;;22.03;33.98
50057;BME280;36875;49.468;11.200;2024-01-27T11:28:46;99819.78;;;22.02;33.88
50057;BME280;36875;49.468;11.200;2024-01-27T11:31:16;99816.78;;;22.03;34.04
50057;BME280;36875;49.468;11.200;2024-01-27T11:33:43;99815.41;;;22.01;34.00
50057;BME280;36875;49.468;11.200;2024-01-27T11:36:18;99826.38;;;22.06;34.06
50057;BME280;36875;49.468;11.200;2024-01-27T11:38:44;99820.38;;;21.99;33.95
50057;BME280;36875;49.468;11.200;2024-01-27T11:41:10;99813.50;;;22.01;33.58
50057;BME280;36875;49.468;11.200;2024-01-27T11:43:35;99822.84;;;21.95;33.77
50057;BME280;36875;49.468;11.200;2024-01-27T11:46:01;99814.34;;;21.91;34.03
50057;BME280;36875;49.468;11.200;2024-01-27T11:48:28;99810.22;;;21.99;34.26
50057;BME280;36875;49.468;11.200;2024-01-27T11:51:03;99807.75;;;21.98;34.29
50057;BME280;36875;49.468;11.200;2024-01-27T11:53:29;99811.03;;;21.94;34.70
50057;BME280;36875;49.468;11.200;2024-01-27T11:55:55;99806.69;;;21.83;34.13
50057;BME280;36875;49.468;11.200;2024-01-27T11:58:21;99800.94;;;21.85;33.47
50057;BME280;36875;49.468;11.200;2024-01-27T12:00:47;99803.66;;;21.80;33.74
50057;BME280;36875;49.468;11.200;2024-01-27T12:03:12;99802.03;;;21.79;33.54
50057;BME280;36875;49.468;11.200;2024-01-27T12:05:39;99797.09;;;21.75;33.78
50057;BME280;36875;49.468;11.200;2024-01-27T12:08:07;99794.91;;;21.78;33.83
50057;BME280;36875;49.468;11.200;2024-01-27T12:10:33;99802.59;;;21.81;33.96
50057;BME280;36875;49.468;11.200;2024-01-27T12:12:59;99792.75;;;21.74;34.06
50057;BME280;36875;49.468;11.200;2024-01-27T12:15:25;99788.06;;;21.75;34.18
50057;BME280;36875;49.468;11.200;2024-01-27T12:17:51;99783.13;;;21.72;34.29
50057;BME280;36875;49.468;11.200;2024-01-27T12:20:17;99787.25;;;21.69;34.16
50057;BME280;36875;49.468;11.200;2024-01-27T12:22:44;99789.44;;;21.72;34.38
50057;BME280;36875;49.468;11.200;2024-01-27T12:25:11;99796.56;;;21.73;34.65
50057;BME280;36875;49.468;11.200;2024-01-27T12:27:39;99798.78;;;21.71;34.41
50057;BME280;36875;49.468;11.200;2024-01-27T12:30:05;99797.16;;;21.65;34.72
50057;BME280;36875;49.468;11.200;2024-01-27T12:32:31;99800.97;;;21.69;34.73
50057;BME280;36875;49.468;11.200;2024-01-27T12:34:57;99793.84;;;21.68;34.68
50057;BME280;36875;49.468;11.200;2024-01-27T12:37:26;99794.41;;;21.65;34.97
50057;BME280;36875;49.468;11.200;2024-01-27T12:39:53;99794.09;;;21.67;34.88
50057;BME280;36875;49.468;11.200;2024-01-27T12:42:18;99799.31;;;21.63;35.15
50057;BME280;36875;49.468;11.200;2024-01-27T12:44:44;99797.41;;;21.64;35.13